createdAt,value
2019-06-26T00:00:19.040Z,24.10
2019-06-26T00:02:46.950Z,24.10
2019-06-26T00:05:14.899Z,24.00
2019-06-26T00:07:42.837Z,24.00
2019-06-26T00:10:10.861Z,23.90
2019-06-26T00:12:38.763Z,23.90
2019-06-26T00:15:07.006Z,23.90
2019-06-26T00:17:35.050Z,23.90
2019-06-26T00:20:02.928Z,23.80
2019-06-26T00:22:30.893Z,23.80
2019-06-26T00:24:58.761Z,23.80
2019-06-26T00:27:26.645Z,23.80
2019-06-26T00:29:54.573Z,23.90
2019-06-26T00:32:22.496Z,23.90
2019-06-26T00:34:50.464Z,24.00
2019-06-26T00:37:18.390Z,24.00
2019-06-26T00:39:46.279Z,24.00
2019-06-26T00:42:14.100Z,24.00
2019-06-26T00:44:42.060Z,24.10
2019-06-26T00:47:09.958Z,24.10
2019-06-26T00:49:37.936Z,24.20
2019-06-26T00:52:05.853Z,24.30
2019-06-26T00:54:33.692Z,24.30
2019-06-26T00:57:01.649Z,24.40
2019-06-26T00:59:29.575Z,24.50
2019-06-26T01:01:57.510Z,24.60
2019-06-26T01:04:32.806Z,24.60
2019-06-26T01:07:00.718Z,24.70
2019-06-26T01:09:28.635Z,24.70
2019-06-26T01:11:56.611Z,24.70
2019-06-26T01:14:24.529Z,24.70
2019-06-26T01:16:52.447Z,24.70
2019-06-26T01:19:20.341Z,24.70
2019-06-26T01:21:48.264Z,24.70
2019-06-26T01:24:16.148Z,24.70
2019-06-26T01:26:43.981Z,24.70
2019-06-26T01:29:11.936Z,24.70
2019-06-26T01:31:39.877Z,24.60
2019-06-26T01:34:07.813Z,24.60
2019-06-26T01:36:35.734Z,24.50
2019-06-26T01:39:05.257Z,24.50
2019-06-26T01:41:33.191Z,24.50
2019-06-26T01:44:14.317Z,24.40
2019-06-26T01:46:30.592Z,24.40
2019-06-26T01:48:58.460Z,24.30
2019-06-26T01:51:26.440Z,24.30
2019-06-26T01:53:54.281Z,24.30
2019-06-26T01:56:22.249Z,24.20
2019-06-26T01:58:50.173Z,24.20
2019-06-26T02:01:18.079Z,24.20
2019-06-26T02:03:46.126Z,24.20
2019-06-26T02:06:14.117Z,24.20
2019-06-26T02:08:42.012Z,24.10
2019-06-26T02:11:09.976Z,24.10
2019-06-26T02:13:37.921Z,24.10
2019-06-26T02:16:05.826Z,24.10
2019-06-26T02:18:35.351Z,24.10
2019-06-26T02:21:03.266Z,24.10
2019-06-26T02:23:31.197Z,24.10
2019-06-26T02:25:59.167Z,24.10
2019-06-26T02:28:27.156Z,24.10
2019-06-26T02:30:55.242Z,24.00
2019-06-26T02:33:23.090Z,24.00
2019-06-26T02:35:51.023Z,24.00
2019-06-26T02:38:18.911Z,24.00
2019-06-26T02:40:46.775Z,23.90
2019-06-26T02:43:14.720Z,23.90
2019-06-26T02:45:42.567Z,23.90
2019-06-26T02:48:10.458Z,23.90
2019-06-26T02:50:38.303Z,23.90
2019-06-26T02:53:06.210Z,23.90
2019-06-26T02:55:34.166Z,24.00
2019-06-26T02:58:02.109Z,24.00
2019-06-26T03:00:30.009Z,24.10
2019-06-26T03:02:58.023Z,24.10
2019-06-26T03:05:25.835Z,24.10
2019-06-26T03:07:53.741Z,24.10
2019-06-26T03:10:21.971Z,24.10
2019-06-26T03:12:49.783Z,24.10
2019-06-26T03:15:17.745Z,24.10
2019-06-26T03:17:55.287Z,24.10
2019-06-26T03:20:16.746Z,24.10
2019-06-26T03:22:44.714Z,24.10
2019-06-26T03:25:12.727Z,24.10
2019-06-26T03:27:40.612Z,24.10
2019-06-26T03:30:08.611Z,24.10
2019-06-26T03:32:36.517Z,24.10
2019-06-26T03:35:04.935Z,24.10
2019-06-26T03:37:32.879Z,24.10
2019-06-26T03:40:00.811Z,24.10
2019-06-26T03:42:28.798Z,24.10
2019-06-26T03:44:56.622Z,24.10
2019-06-26T03:47:24.573Z,24.20
2019-06-26T03:49:52.658Z,24.20
2019-06-26T03:52:20.559Z,24.20
2019-06-26T03:54:48.404Z,24.30
2019-06-26T03:57:16.367Z,24.30
2019-06-26T03:59:44.209Z,24.30
2019-06-26T04:02:12.158Z,24.30
2019-06-26T04:04:40.171Z,24.30
2019-06-26T04:07:08.115Z,24.30
2019-06-26T04:09:36.036Z,24.30
2019-06-26T04:12:04.780Z,24.30
2019-06-26T04:14:32.708Z,24.30
2019-06-26T04:17:00.651Z,24.30
2019-06-26T04:19:28.568Z,24.30
2019-06-26T04:21:56.520Z,24.30
2019-06-26T04:24:24.644Z,24.30
2019-06-26T04:26:52.533Z,24.40
2019-06-26T04:29:20.372Z,24.40
2019-06-26T04:31:48.258Z,24.40
2019-06-26T04:34:16.091Z,24.50
2019-06-26T04:36:44.031Z,24.50
2019-06-26T04:39:11.930Z,24.50
2019-06-26T04:41:39.834Z,24.60
2019-06-26T04:44:07.675Z,24.60
2019-06-26T04:46:35.530Z,24.60
2019-06-26T04:49:03.482Z,24.70
2019-06-26T04:51:31.328Z,24.70
2019-06-26T04:53:59.215Z,24.70
2019-06-26T04:56:27.113Z,24.80
2019-06-26T04:58:55.053Z,24.80
2019-06-26T05:01:22.912Z,24.90
2019-06-26T05:03:50.864Z,24.90
2019-06-26T05:06:18.790Z,25.00
2019-06-26T05:08:46.649Z,25.00
2019-06-26T05:11:14.575Z,25.10
2019-06-26T05:13:42.640Z,25.20
2019-06-26T05:16:14.816Z,25.30
2019-06-26T05:18:40.118Z,25.40
2019-06-26T05:21:08.068Z,25.50
2019-06-26T05:23:35.911Z,25.50
2019-06-26T05:26:03.868Z,25.60
2019-06-26T05:28:31.711Z,25.70
2019-06-26T05:30:59.649Z,25.70
2019-06-26T05:33:27.504Z,25.70
2019-06-26T05:35:55.372Z,25.80
2019-06-26T05:38:23.286Z,25.80
2019-06-26T05:40:51.344Z,25.90
2019-06-26T05:43:19.182Z,26.00
2019-06-26T05:45:47.116Z,26.10
2019-06-26T05:48:15.067Z,26.20
2019-06-26T05:50:43.510Z,26.30
2019-06-26T05:53:11.493Z,26.30
2019-06-26T05:55:39.416Z,26.40
2019-06-26T05:58:07.468Z,26.50
2019-06-26T06:00:35.383Z,26.50
2019-06-26T06:03:03.294Z,26.60
2019-06-26T06:05:31.238Z,26.60
2019-06-26T06:07:59.088Z,26.70
2019-06-26T06:10:27.036Z,26.80
2019-06-26T06:12:54.956Z,26.90
2019-06-26T06:15:22.898Z,26.90
2019-06-26T06:17:50.815Z,27.00
2019-06-26T06:20:20.374Z,27.00
2019-06-26T06:22:48.291Z,27.10
2019-06-26T06:25:16.156Z,27.20
2019-06-26T06:27:44.033Z,27.30
2019-06-26T06:30:12.035Z,27.30
2019-06-26T06:32:40.001Z,27.40
2019-06-26T06:35:07.902Z,27.50
2019-06-26T06:37:35.839Z,27.60
2019-06-26T06:40:05.219Z,27.50
2019-06-26T06:42:33.090Z,27.60
2019-06-26T06:45:00.953Z,27.50
2019-06-26T06:47:28.837Z,27.60
2019-06-26T06:49:56.689Z,27.70
2019-06-26T06:52:24.601Z,27.70
2019-06-26T06:54:52.515Z,27.60
2019-06-26T06:57:20.364Z,27.70
2019-06-26T06:59:48.330Z,27.80
2019-06-26T07:02:16.261Z,27.80
2019-06-26T07:04:44.225Z,27.90
2019-06-26T07:07:12.124Z,28.00
2019-06-26T07:09:40.176Z,28.10
2019-06-26T07:12:08.100Z,28.20
2019-06-26T07:14:36.017Z,28.30
2019-06-26T07:17:19.382Z,28.30
2019-06-26T07:19:33.473Z,28.30
2019-06-26T07:22:01.419Z,28.40
2019-06-26T07:24:29.336Z,28.50
2019-06-26T07:26:57.281Z,28.40
2019-06-26T07:29:25.230Z,28.50
2019-06-26T07:31:53.186Z,28.60
2019-06-26T07:34:21.102Z,28.70
2019-06-26T07:36:49.044Z,28.60
2019-06-26T07:39:16.984Z,28.60
2019-06-26T07:41:45.030Z,28.60
2019-06-26T07:44:12.942Z,28.60
2019-06-26T07:46:40.817Z,28.60
2019-06-26T07:49:08.733Z,28.60
2019-06-26T07:51:36.590Z,28.80
2019-06-26T07:54:04.565Z,28.90
2019-06-26T07:56:32.467Z,29.00
2019-06-26T07:59:00.357Z,29.20
2019-06-26T08:01:28.438Z,29.20
2019-06-26T08:03:56.342Z,29.30
2019-06-26T08:06:24.262Z,29.30
2019-06-26T08:08:52.199Z,29.40
2019-06-26T08:11:20.129Z,29.40
2019-06-26T08:13:48.082Z,29.40
2019-06-26T08:16:15.969Z,29.50
2019-06-26T08:18:43.806Z,29.60
2019-06-26T08:21:13.035Z,29.70
2019-06-26T08:23:41.130Z,29.30
2019-06-26T08:26:09.062Z,29.40
2019-06-26T08:28:36.908Z,29.50
2019-06-26T08:31:04.789Z,29.70
2019-06-26T08:33:32.683Z,29.70
2019-06-26T08:36:00.522Z,29.70
2019-06-26T08:38:28.355Z,29.90
2019-06-26T08:40:56.225Z,29.90
2019-06-26T08:43:24.113Z,30.00
2019-06-26T08:45:52.028Z,29.90
2019-06-26T08:48:38.311Z,30.00
2019-06-26T08:50:49.459Z,29.90
2019-06-26T08:53:17.398Z,29.90
2019-06-26T08:55:45.226Z,30.20
2019-06-26T08:58:13.113Z,30.30
2019-06-26T09:00:41.032Z,30.30
2019-06-26T09:03:08.893Z,30.40
2019-06-26T09:05:47.350Z,30.40
2019-06-26T09:08:06.481Z,30.50
2019-06-26T09:10:34.488Z,30.60
2019-06-26T09:13:02.415Z,30.80
2019-06-26T09:15:30.349Z,30.70
2019-06-26T09:17:58.209Z,30.80
2019-06-26T09:20:27.622Z,30.80
2019-06-26T09:22:55.499Z,30.80
2019-06-26T09:25:23.364Z,30.90
2019-06-26T09:27:51.246Z,31.00
2019-06-26T09:30:19.353Z,31.10
2019-06-26T09:32:47.239Z,31.20
2019-06-26T09:35:15.196Z,31.40
2019-06-26T09:37:43.096Z,31.30
2019-06-26T09:40:11.013Z,31.10
2019-06-26T09:42:38.847Z,31.20
2019-06-26T09:45:07.164Z,31.30
2019-06-26T09:47:35.108Z,31.30
2019-06-26T09:50:04.560Z,31.70
2019-06-26T09:52:32.402Z,31.70
2019-06-26T09:55:00.366Z,31.30
2019-06-26T09:57:28.212Z,31.50
2019-06-26T09:59:56.067Z,31.60
2019-06-26T10:02:23.964Z,31.90
2019-06-26T10:04:51.866Z,31.90
2019-06-26T10:07:19.925Z,31.70
2019-06-26T10:09:47.773Z,31.90
2019-06-26T10:12:16.389Z,31.90
2019-06-26T10:14:47.801Z,32.10
2019-06-26T10:17:13.863Z,32.10
2019-06-26T10:19:41.809Z,32.30
2019-06-26T10:22:09.719Z,32.20
2019-06-26T10:24:37.552Z,32.10
2019-06-26T10:27:05.505Z,32.30
2019-06-26T10:29:33.382Z,32.40
2019-06-26T10:32:01.315Z,32.40
2019-06-26T10:34:29.150Z,32.50
2019-06-26T10:36:57.121Z,32.80
2019-06-26T10:39:25.041Z,32.50
2019-06-26T10:41:54.985Z,32.40
2019-06-26T10:44:22.486Z,32.50
2019-06-26T10:46:50.428Z,32.60
2019-06-26T10:49:26.877Z,32.60
2019-06-26T10:51:47.917Z,32.60
2019-06-26T10:54:15.769Z,32.80
2019-06-26T10:56:43.706Z,32.80
2019-06-26T10:59:11.658Z,32.70
2019-06-26T11:01:39.636Z,33.00
2019-06-26T11:04:07.571Z,33.00
2019-06-26T11:06:37.231Z,32.80
2019-06-26T11:09:07.048Z,32.50
2019-06-26T11:11:35.105Z,32.70
2019-06-26T11:14:03.030Z,33.10
2019-06-26T11:16:30.958Z,32.90
2019-06-26T11:18:58.909Z,33.00
2019-06-26T11:21:26.833Z,33.00
2019-06-26T11:23:54.769Z,33.20
2019-06-26T11:26:22.708Z,33.20
2019-06-26T11:28:50.619Z,33.30
2019-06-26T11:31:18.582Z,33.30
2019-06-26T11:33:46.495Z,33.20
2019-06-26T11:36:14.498Z,32.90
2019-06-26T11:38:42.407Z,33.20
2019-06-26T11:41:10.332Z,33.10
2019-06-26T11:43:38.267Z,33.20
2019-06-26T11:46:06.193Z,33.40
2019-06-26T11:48:34.149Z,33.00
2019-06-26T11:51:02.077Z,33.00
2019-06-26T11:53:29.994Z,33.00
2019-06-26T11:55:57.932Z,33.00
2019-06-26T11:58:25.846Z,32.80
2019-06-26T12:00:54.029Z,32.90
2019-06-26T12:03:21.851Z,32.90
2019-06-26T12:05:49.811Z,32.80
2019-06-26T12:08:18.620Z,33.20
2019-06-26T12:10:46.670Z,33.20
2019-06-26T12:13:14.498Z,33.10
2019-06-26T12:15:42.476Z,32.90
2019-06-26T12:18:10.383Z,32.80
2019-06-26T12:20:38.288Z,33.00
2019-06-26T12:23:06.206Z,33.00
2019-06-26T12:25:34.115Z,33.00
2019-06-26T12:28:02.009Z,32.60
2019-06-26T12:30:29.960Z,33.00
2019-06-26T12:33:03.284Z,33.20
2019-06-26T12:35:27.389Z,33.50
2019-06-26T12:37:55.253Z,33.00
2019-06-26T12:40:23.191Z,33.00
2019-06-26T12:42:54.495Z,33.20
2019-06-26T12:45:20.801Z,33.70
2019-06-26T12:47:48.734Z,33.70
2019-06-26T12:50:34.142Z,33.30
2019-06-26T12:52:47.698Z,33.20
2019-06-26T12:55:15.628Z,33.50
2019-06-26T12:57:43.617Z,33.20
2019-06-26T13:00:11.621Z,33.00
2019-06-26T13:02:39.541Z,33.10
2019-06-26T13:05:07.498Z,33.10
2019-06-26T13:07:35.406Z,33.40
2019-06-26T13:10:07.391Z,33.50
2019-06-26T13:12:34.423Z,33.30
2019-06-26T13:15:02.342Z,33.50
2019-06-26T13:17:30.201Z,34.00
2019-06-26T13:19:58.135Z,33.90
2019-06-26T13:22:26.056Z,33.90
2019-06-26T13:24:53.944Z,33.50
2019-06-26T13:27:21.852Z,33.40
2019-06-26T13:29:49.795Z,33.60
2019-06-26T13:32:17.719Z,33.90
2019-06-26T13:34:45.586Z,33.90
2019-06-26T13:37:13.451Z,33.80
2019-06-26T13:39:41.409Z,33.80
2019-06-26T13:42:09.258Z,33.90
2019-06-26T13:44:37.127Z,34.10
2019-06-26T13:47:05.052Z,34.00
2019-06-26T13:49:32.917Z,33.90
2019-06-26T13:52:00.766Z,33.90
2019-06-26T13:54:28.710Z,34.00
2019-06-26T13:56:56.545Z,34.10
2019-06-26T13:59:24.426Z,34.00
2019-06-26T14:01:52.351Z,33.50
2019-06-26T14:04:20.313Z,33.20
2019-06-26T14:06:48.256Z,33.70
2019-06-26T14:09:16.098Z,33.60
2019-06-26T14:11:43.934Z,34.00
2019-06-26T14:14:11.789Z,34.10
2019-06-26T14:16:39.640Z,34.20
2019-06-26T14:19:07.593Z,34.30
2019-06-26T14:21:35.506Z,33.90
2019-06-26T14:24:03.480Z,34.20
2019-06-26T14:26:32.264Z,34.60
2019-06-26T14:29:00.205Z,34.40
2019-06-26T14:31:28.073Z,34.30
2019-06-26T14:33:55.909Z,34.30
2019-06-26T14:36:23.786Z,34.30
2019-06-26T14:38:51.651Z,34.10
2019-06-26T14:41:19.599Z,34.40
2019-06-26T14:43:47.525Z,34.60
2019-06-26T14:46:15.522Z,34.10
2019-06-26T14:48:43.377Z,33.90
2019-06-26T14:51:11.291Z,34.10
2019-06-26T14:53:39.217Z,33.90
2019-06-26T14:56:07.162Z,33.50
2019-06-26T14:58:36.357Z,33.60
2019-06-26T15:01:04.457Z,34.10
2019-06-26T15:03:33.012Z,34.60
2019-06-26T15:06:15.377Z,34.50
2019-06-26T15:08:30.487Z,35.00
2019-06-26T15:10:58.334Z,35.10
2019-06-26T15:13:26.225Z,35.30
2019-06-26T15:15:54.939Z,35.30
2019-06-26T15:18:22.884Z,35.70
2019-06-26T15:20:50.792Z,35.60
2019-06-26T15:23:18.736Z,35.30
2019-06-26T15:25:46.694Z,34.40
2019-06-26T15:28:14.577Z,34.00
2019-06-26T15:30:42.532Z,34.00
2019-06-26T15:33:10.456Z,34.00
2019-06-26T15:35:38.393Z,34.70
2019-06-26T15:38:06.350Z,35.30
2019-06-26T15:40:34.438Z,35.30
2019-06-26T15:43:02.294Z,35.00
2019-06-26T15:45:31.342Z,34.50
2019-06-26T15:47:59.287Z,34.20
2019-06-26T15:50:27.100Z,33.80
2019-06-26T15:52:54.984Z,33.60
2019-06-26T15:55:22.918Z,33.10
2019-06-26T15:57:50.792Z,31.90
2019-06-26T16:00:18.744Z,31.00
2019-06-26T16:02:46.703Z,30.60
2019-06-26T16:05:14.844Z,31.20
2019-06-26T16:07:42.714Z,31.70
2019-06-26T16:10:10.727Z,32.20
2019-06-26T16:12:38.674Z,32.10
2019-06-26T16:15:06.611Z,32.30
2019-06-26T16:17:44.892Z,32.30
2019-06-26T16:20:12.816Z,32.40
2019-06-26T16:22:40.852Z,32.50
2019-06-26T16:25:08.898Z,32.10
2019-06-26T16:27:36.814Z,31.70
2019-06-26T16:30:07.810Z,31.20
2019-06-26T16:32:35.745Z,30.90
2019-06-26T16:35:04.782Z,31.00
2019-06-26T16:37:32.995Z,30.80
2019-06-26T16:40:00.958Z,31.10
2019-06-26T16:42:28.891Z,31.50
2019-06-26T16:44:56.842Z,31.60
2019-06-26T16:47:24.708Z,31.70
2019-06-26T16:49:52.747Z,31.50
2019-06-26T16:52:20.600Z,31.50
2019-06-26T16:54:48.622Z,31.70
2019-06-26T16:57:16.553Z,32.20
2019-06-26T16:59:44.467Z,32.30
2019-06-26T17:02:12.428Z,31.70
2019-06-26T17:04:40.344Z,31.50
2019-06-26T17:07:08.290Z,31.00
2019-06-26T17:09:36.409Z,30.70
2019-06-26T17:12:04.568Z,31.10
2019-06-26T17:14:32.421Z,31.20
2019-06-26T17:17:00.466Z,30.60
2019-06-26T17:19:28.321Z,30.70
2019-06-26T17:21:56.235Z,30.90
2019-06-26T17:24:24.207Z,31.00
2019-06-26T17:26:52.125Z,31.20
2019-06-26T17:29:19.997Z,31.50
2019-06-26T17:31:47.928Z,31.20
2019-06-26T17:34:15.980Z,31.00
2019-06-26T17:36:43.843Z,30.70
2019-06-26T17:39:11.939Z,31.00
2019-06-26T17:41:39.840Z,29.70
2019-06-26T17:44:07.770Z,30.80
2019-06-26T17:46:35.754Z,30.50
2019-06-26T17:49:03.793Z,30.80
2019-06-26T17:51:31.721Z,30.80
2019-06-26T17:53:59.587Z,30.60
2019-06-26T17:56:27.467Z,31.00
2019-06-26T17:58:55.329Z,31.20
2019-06-26T18:01:23.283Z,30.80
2019-06-26T18:03:51.257Z,30.30
2019-06-26T18:06:19.120Z,30.30
2019-06-26T18:08:46.973Z,30.10
2019-06-26T18:11:14.915Z,29.60
2019-06-26T18:13:42.763Z,29.30
2019-06-26T18:16:10.828Z,29.40
2019-06-26T18:18:38.762Z,29.30
2019-06-26T18:21:06.691Z,29.30
2019-06-26T18:23:38.213Z,29.10
2019-06-26T18:26:12.876Z,28.30
2019-06-26T18:28:33.676Z,27.70
2019-06-26T18:31:01.872Z,26.80
2019-06-26T18:33:29.778Z,25.90
2019-06-26T18:35:57.752Z,25.30
2019-06-26T18:38:25.745Z,24.90
2019-06-26T18:40:53.606Z,24.70
2019-06-26T18:43:21.517Z,24.40
2019-06-26T18:45:49.457Z,24.20
2019-06-26T18:48:17.341Z,24.10
2019-06-26T18:50:45.221Z,23.90
2019-06-26T18:53:13.139Z,23.70
2019-06-26T18:55:40.978Z,23.60
2019-06-26T18:58:08.848Z,23.40
2019-06-26T19:00:36.773Z,23.40
2019-06-26T19:03:04.724Z,23.20
2019-06-26T19:05:32.640Z,23.10
2019-06-26T19:08:00.598Z,22.90
2019-06-26T19:10:28.520Z,22.80
2019-06-26T19:12:56.472Z,22.70
2019-06-26T19:15:24.378Z,22.70
2019-06-26T19:17:52.469Z,22.60
2019-06-26T19:20:20.498Z,22.60
2019-06-26T19:22:48.482Z,22.60
2019-06-26T19:25:16.361Z,22.50
2019-06-26T19:27:44.301Z,22.20
2019-06-26T19:30:12.338Z,21.90
2019-06-26T19:32:40.339Z,21.70
2019-06-26T19:35:18.499Z,21.50
2019-06-26T19:37:37.995Z,21.30
2019-06-26T19:40:08.436Z,21.20
2019-06-26T19:42:35.575Z,21.10
2019-06-26T19:45:04.326Z,21.10
2019-06-26T19:47:32.176Z,21.00
2019-06-26T19:50:00.073Z,20.90
2019-06-26T19:52:27.999Z,20.90
2019-06-26T19:54:55.920Z,20.80
2019-06-26T19:57:23.863Z,20.70
2019-06-26T19:59:51.771Z,20.60
2019-06-26T20:02:19.720Z,20.60
2019-06-26T20:04:48.645Z,20.50
2019-06-26T20:07:16.536Z,20.40
2019-06-26T20:09:44.462Z,20.30
2019-06-26T20:12:12.382Z,20.20
2019-06-26T20:14:40.269Z,20.10
2019-06-26T20:17:08.221Z,20.10
2019-06-26T20:19:36.141Z,19.90
2019-06-26T20:22:04.074Z,19.80
2019-06-26T20:24:43.479Z,19.70
2019-06-26T20:27:01.568Z,19.60
2019-06-26T20:29:29.491Z,19.40
2019-06-26T20:31:57.369Z,19.30
2019-06-26T20:34:25.236Z,19.20
2019-06-26T20:36:53.097Z,19.10
2019-06-26T20:39:21.045Z,18.90
2019-06-26T20:41:48.993Z,18.80
2019-06-26T20:44:17.063Z,18.70
2019-06-26T20:46:44.900Z,18.70
2019-06-26T20:49:12.809Z,18.70
2019-06-26T20:51:40.672Z,18.60
2019-06-26T20:54:08.745Z,18.50
2019-06-26T20:56:36.845Z,18.50
2019-06-26T20:59:04.756Z,18.50
2019-06-26T21:01:32.708Z,18.40
2019-06-26T21:04:00.635Z,18.40
2019-06-26T21:06:28.590Z,18.30
2019-06-26T21:08:56.498Z,18.30
2019-06-26T21:11:24.370Z,18.30
2019-06-26T21:13:52.218Z,18.10
2019-06-26T21:16:20.090Z,18.10
2019-06-26T21:18:47.945Z,18.10
2019-06-26T21:21:15.807Z,18.10
2019-06-26T21:23:43.673Z,18.00
2019-06-26T21:26:11.575Z,18.00
2019-06-26T21:28:39.504Z,18.00
2019-06-26T21:31:07.351Z,17.90
2019-06-26T21:33:35.260Z,17.90
2019-06-26T21:36:03.149Z,17.80
2019-06-26T21:38:31.054Z,17.70
2019-06-26T21:40:58.913Z,17.80
2019-06-26T21:43:26.762Z,17.70
2019-06-26T21:45:54.643Z,17.80
2019-06-26T21:48:22.561Z,17.80
2019-06-26T21:50:50.519Z,17.80
2019-06-26T21:53:18.360Z,17.70
2019-06-26T21:55:46.242Z,17.70
2019-06-26T21:58:14.164Z,17.70
2019-06-26T22:00:42.039Z,17.70
2019-06-26T22:03:10.933Z,17.70
2019-06-26T22:05:38.875Z,17.70
2019-06-26T22:08:06.769Z,17.70
2019-06-26T22:10:34.823Z,17.70
2019-06-26T22:13:02.732Z,17.70
2019-06-26T22:15:30.652Z,17.50
2019-06-26T22:17:58.601Z,17.50
2019-06-26T22:20:26.796Z,17.50
2019-06-26T22:22:54.728Z,17.50
2019-06-26T22:25:22.641Z,17.50
2019-06-26T22:27:50.570Z,17.30
2019-06-26T22:30:18.707Z,17.40
2019-06-26T22:32:46.614Z,17.30
2019-06-26T22:35:18.571Z,17.10
2019-06-26T22:37:46.474Z,17.10
2019-06-26T22:40:14.441Z,17.10
2019-06-26T22:42:42.382Z,17.10
2019-06-26T22:45:10.295Z,17.20
2019-06-26T22:47:38.239Z,17.30
2019-06-26T22:50:06.600Z,17.40
2019-06-26T22:52:34.526Z,17.50
2019-06-26T22:55:02.943Z,17.50
2019-06-26T22:57:30.856Z,17.50
2019-06-26T22:59:58.804Z,17.30
2019-06-26T23:02:26.729Z,17.30
2019-06-26T23:04:54.657Z,17.40
2019-06-26T23:07:22.628Z,17.40
2019-06-26T23:09:50.587Z,17.40
2019-06-26T23:12:18.428Z,17.40
2019-06-26T23:14:46.305Z,17.30
2019-06-26T23:17:14.147Z,17.20
2019-06-26T23:19:42.023Z,17.20
2019-06-26T23:22:09.887Z,17.20
2019-06-26T23:24:37.868Z,17.10
2019-06-26T23:27:05.806Z,17.00
2019-06-26T23:29:33.734Z,17.00
2019-06-26T23:32:03.346Z,16.90
2019-06-26T23:34:31.235Z,16.90
2019-06-26T23:36:59.125Z,17.00
2019-06-26T23:39:27.058Z,17.00
2019-06-26T23:41:55.018Z,17.00
2019-06-26T23:44:22.923Z,17.00
2019-06-26T23:46:50.865Z,17.00
2019-06-26T23:49:18.717Z,16.90
2019-06-26T23:51:46.687Z,17.00
2019-06-26T23:54:14.536Z,16.90
2019-06-26T23:56:42.447Z,16.90
2019-06-26T23:59:10.323Z,16.90
